sensor_id;sensor_type;location;lat;lon;timestamp;pressure;altitude;pressure_sealevel;temperature;humidity
77737;BME280;66903;59.926;30.404;2023-06-22T00:03:14;101316.25;;;31.19;36.94
77737;BME280;66903;59.926;30.404;2023-06-22T00:08:15;101311.63;;;31.18;37.16
77737;BME280;66903;59.926;30.404;2023-06-22T00:13:16;101305.34;;;31.16;37.28
77737;BME280;66903;59.926;30.404;2023-06-22T00:18:18;101296.88;;;31.11;37.00
77737;BME280;66903;59.926;30.404;2023-06-22T00:23:18;101290.94;;;31.08;37.34
77737;BME280;66903;59.926;30.404;2023-06-22T00:28:19;101292.97;;;31.07;37.28
77737;BME280;66903;59.926;30.404;2023-06-22T00:33:20;101273.44;;;31.04;37.17
77737;BME280;66903;59.926;30.404;2023-06-22T00:38:20;101275.81;;;31.02;37.21
77737;BME280;66903;59.926;30.404;2023-06-22T00:43:21;101275.31;;;31.00;37.37
77737;BME280;66903;59.926;30.404;2023-06-22T00:48:21;101270.22;;;30.97;37.61
77737;BME280;66903;59.926;30.404;2023-06-22T00:53:22;101268.03;;;30.94;37.80
77737;BME280;66903;59.926;30.404;2023-06-22T00:58:22;101258.50;;;30.94;37.57
77737;BME280;66903;59.926;30.404;2023-06-22T01:03:25;101257.34;;;30.95;37.55
77737;BME280;66903;59.926;30.404;2023-06-22T01:08:35;101256.47;;;30.94;37.69
77737;BME280;66903;59.926;30.404;2023-06-22T01:18:46;101249.69;;;30.99;37.57
77737;BME280;66903;59.926;30.404;2023-06-22T01:28:56;101246.28;;;30.97;37.79
77737;BME280;66903;59.926;30.404;2023-06-22T01:34:03;101253.41;;;30.99;37.11
77737;BME280;66903;59.926;30.404;2023-06-22T01:39:05;101249.16;;;30.97;37.67
77737;BME280;66903;59.926;30.404;2023-06-22T01:44:07;101242.06;;;30.94;37.40
77737;BME280;66903;59.926;30.404;2023-06-22T01:49:08;101240.34;;;30.93;38.05
77737;BME280;66903;59.926;30.404;2023-06-22T01:54:09;101224.06;;;30.89;37.79
77737;BME280;66903;59.926;30.404;2023-06-22T01:59:28;101226.78;;;30.94;37.83
77737;BME280;66903;59.926;30.404;2023-06-22T02:05:08;101229.66;;;30.94;37.64
77737;BME280;66903;59.926;30.404;2023-06-22T02:10:02;101218.81;;;30.91;37.84
77737;BME280;66903;59.926;30.404;2023-06-22T02:15:05;101233.56;;;30.89;38.23
77737;BME280;66903;59.926;30.404;2023-06-22T02:20:06;101230.69;;;30.89;37.93
77737;BME280;66903;59.926;30.404;2023-06-22T02:25:08;101224.91;;;30.89;38.00
77737;BME280;66903;59.926;30.404;2023-06-22T02:30:09;101223.38;;;30.92;38.09
77737;BME280;66903;59.926;30.404;2023-06-22T02:35:10;101226.25;;;30.92;38.03
77737;BME280;66903;59.926;30.404;2023-06-22T02:40:11;101223.03;;;30.93;38.11
77737;BME280;66903;59.926;30.404;2023-06-22T02:45:11;101197.75;;;30.90;37.97
77737;BME280;66903;59.926;30.404;2023-06-22T02:50:12;101209.97;;;30.96;38.13
77737;BME280;66903;59.926;30.404;2023-06-22T02:55:12;101209.63;;;30.97;38.27
77737;BME280;66903;59.926;30.404;2023-06-22T03:00:14;101198.59;;;30.99;37.87
77737;BME280;66903;59.926;30.404;2023-06-22T03:05:18;101199.09;;;31.01;37.79
77737;BME280;66903;59.926;30.404;2023-06-22T03:10:19;101196.03;;;31.06;37.99
77737;BME280;66903;59.926;30.404;2023-06-22T03:15:19;101202.13;;;31.13;37.69
77737;BME280;66903;59.926;30.404;2023-06-22T03:20:20;101213.50;;;31.18;37.81
77737;BME280;66903;59.926;30.404;2023-06-22T03:25:20;101222.47;;;31.25;37.73
77737;BME280;66903;59.926;30.404;2023-06-22T03:30:21;101233.38;;;31.37;37.81
77737;BME280;66903;59.926;30.404;2023-06-22T03:35:21;101211.56;;;31.48;37.00
77737;BME280;66903;59.926;30.404;2023-06-22T03:40:22;101200.84;;;31.57;37.03
77737;BME280;66903;59.926;30.404;2023-06-22T03:45:22;101197.09;;;31.65;37.45
77737;BME280;66903;59.926;30.404;2023-06-22T03:50:23;101222.03;;;31.70;36.96
77737;BME280;66903;59.926;30.404;2023-06-22T03:55:23;101204.88;;;31.73;37.43
77737;BME280;66903;59.926;30.404;2023-06-22T04:00:24;101209.13;;;31.76;37.43
77737;BME280;66903;59.926;30.404;2023-06-22T04:05:24;101198.03;;;31.78;36.94
77737;BME280;66903;59.926;30.404;2023-06-22T04:10:25;101189.03;;;31.79;37.56
77737;BME280;66903;59.926;30.404;2023-06-22T04:15:25;101189.50;;;31.81;36.87
77737;BME280;66903;59.926;30.404;2023-06-22T04:20:26;101193.25;;;31.82;37.22
77737;BME280;66903;59.926;30.404;2023-06-22T04:25:26;101191.44;;;31.77;37.52
77737;BME280;66903;59.926;30.404;2023-06-22T04:30:27;101178.34;;;31.71;37.39
77737;BME280;66903;59.926;30.404;2023-06-22T04:35:27;101194.38;;;31.69;37.55
77737;BME280;66903;59.926;30.404;2023-06-22T04:40:28;101185.69;;;31.69;37.48
77737;BME280;66903;59.926;30.404;2023-06-22T04:45:29;101184.84;;;31.68;37.45
77737;BME280;66903;59.926;30.404;2023-06-22T04:50:29;101182.81;;;31.69;37.50
77737;BME280;66903;59.926;30.404;2023-06-22T04:55:31;101179.56;;;31.70;37.57
77737;BME280;66903;59.926;30.404;2023-06-22T05:00:31;101176.69;;;31.70;37.63
77737;BME280;66903;59.926;30.404;2023-06-22T05:05:32;101165.13;;;31.70;37.73
77737;BME280;66903;59.926;30.404;2023-06-22T05:10:33;101155.94;;;31.68;37.75
77737;BME280;66903;59.926;30.404;2023-06-22T05:15:34;101154.22;;;31.67;37.94
77737;BME280;66903;59.926;30.404;2023-06-22T05:20:40;101155.09;;;31.68;37.39
77737;BME280;66903;59.926;30.404;2023-06-22T05:25:40;101133.19;;;31.67;37.60
77737;BME280;66903;59.926;30.404;2023-06-22T05:30:41;101137.75;;;31.68;37.86
77737;BME280;66903;59.926;30.404;2023-06-22T05:35:41;101128.53;;;31.74;37.64
77737;BME280;66903;59.926;30.404;2023-06-22T05:40:42;101126.09;;;31.85;37.58
77737;BME280;66903;59.926;30.404;2023-06-22T05:45:42;101117.91;;;31.95;37.10
77737;BME280;66903;59.926;30.404;2023-06-22T05:50:43;101112.91;;;32.04;36.96
77737;BME280;66903;59.926;30.404;2023-06-22T05:55:43;101108.78;;;32.14;37.04
77737;BME280;66903;59.926;30.404;2023-06-22T06:00:44;101099.16;;;32.22;36.78
77737;BME280;66903;59.926;30.404;2023-06-22T06:05:45;101097.91;;;32.31;36.70
77737;BME280;66903;59.926;30.404;2023-06-22T06:10:45;101100.94;;;32.35;36.72
77737;BME280;66903;59.926;30.404;2023-06-22T06:15:46;101096.16;;;32.39;36.68
77737;BME280;66903;59.926;30.404;2023-06-22T06:20:53;101083.53;;;32.43;36.59
77737;BME280;66903;59.926;30.404;2023-06-22T06:25:56;101075.59;;;32.40;36.35
77737;BME280;66903;59.926;30.404;2023-06-22T06:30:57;101067.94;;;32.36;36.61
77737;BME280;66903;59.926;30.404;2023-06-22T06:35:58;101064.53;;;32.34;37.54
77737;BME280;66903;59.926;30.404;2023-06-22T06:41:02;101071.03;;;32.31;38.29
77737;BME280;66903;59.926;30.404;2023-06-22T06:46:02;101067.66;;;32.29;38.50
77737;BME280;66903;59.926;30.404;2023-06-22T06:51:09;101058.16;;;32.28;38.08
77737;BME280;66903;59.926;30.404;2023-06-22T06:56:10;101056.66;;;32.22;38.56
77737;BME280;66903;59.926;30.404;2023-06-22T07:01:11;101048.63;;;32.28;38.45
77737;BME280;66903;59.926;30.404;2023-06-22T07:06:13;101054.13;;;32.41;38.67
77737;BME280;66903;59.926;30.404;2023-06-22T07:11:14;101051.41;;;32.57;38.57
77737;BME280;66903;59.926;30.404;2023-06-22T07:16:14;101044.97;;;32.72;38.21
77737;BME280;66903;59.926;30.404;2023-06-22T07:21:15;101042.09;;;32.84;39.25
77737;BME280;66903;59.926;30.404;2023-06-22T07:26:15;101035.53;;;32.96;39.98
77737;BME280;66903;59.926;30.404;2023-06-22T07:31:16;101024.31;;;33.06;39.31
77737;BME280;66903;59.926;30.404;2023-06-22T07:36:17;101021.78;;;33.17;39.48
77737;BME280;66903;59.926;30.404;2023-06-22T07:41:18;101015.88;;;33.25;39.52
77737;BME280;66903;59.926;30.404;2023-06-22T07:46:19;101012.53;;;33.35;40.66
77737;BME280;66903;59.926;30.404;2023-06-22T07:51:20;101011.56;;;33.43;39.27
77737;BME280;66903;59.926;30.404;2023-06-22T07:56:21;101013.03;;;33.49;39.54
77737;BME280;66903;59.926;30.404;2023-06-22T08:01:21;101007.47;;;33.57;39.57
77737;BME280;66903;59.926;30.404;2023-06-22T08:06:22;100997.31;;;33.63;38.82
77737;BME280;66903;59.926;30.404;2023-06-22T08:11:22;100993.66;;;33.66;39.08
77737;BME280;66903;59.926;30.404;2023-06-22T08:16:25;100985.09;;;33.69;38.96
77737;BME280;66903;59.926;30.404;2023-06-22T08:21:26;100987.75;;;33.74;39.61
77737;BME280;66903;59.926;30.404;2023-06-22T08:26:26;100977.00;;;33.75;39.14
77737;BME280;66903;59.926;30.404;2023-06-22T08:31:27;100976.28;;;33.66;39.34
77737;BME280;66903;59.926;30.404;2023-06-22T08:36:27;100965.06;;;33.64;39.77
77737;BME280;66903;59.926;30.404;2023-06-22T08:41:37;100967.13;;;33.64;39.66
77737;BME280;66903;59.926;30.404;2023-06-22T08:46:38;100963.03;;;33.65;40.35
77737;BME280;66903;59.926;30.404;2023-06-22T08:51:40;100962.53;;;33.63;39.51
77737;BME280;66903;59.926;30.404;2023-06-22T08:56:41;100955.78;;;33.58;40.56
77737;BME280;66903;59.926;30.404;2023-06-22T09:01:44;100952.88;;;33.58;40.98
77737;BME280;66903;59.926;30.404;2023-06-22T09:06:45;100952.28;;;33.65;40.11
77737;BME280;66903;59.926;30.404;2023-06-22T09:11:46;100947.53;;;33.73;40.48
77737;BME280;66903;59.926;30.404;2023-06-22T09:16:47;100947.91;;;33.71;40.74
77737;BME280;66903;59.926;30.404;2023-06-22T09:21:47;100943.81;;;33.72;40.05
77737;BME280;66903;59.926;30.404;2023-06-22T09:26:48;100942.69;;;33.77;39.90
77737;BME280;66903;59.926;30.404;2023-06-22T09:31:48;100932.91;;;33.81;39.92
77737;BME280;66903;59.926;30.404;2023-06-22T09:36:49;100932.91;;;33.81;39.85
77737;BME280;66903;59.926;30.404;2023-06-22T09:41:49;100927.00;;;33.78;40.03
77737;BME280;66903;59.926;30.404;2023-06-22T09:46:50;100917.47;;;33.77;39.24
77737;BME280;66903;59.926;30.404;2023-06-22T09:51:51;100908.56;;;33.70;39.50
77737;BME280;66903;59.926;30.404;2023-06-22T09:56:52;100894.44;;;33.69;40.57
77737;BME280;66903;59.926;30.404;2023-06-22T10:01:53;100895.03;;;33.74;39.55
77737;BME280;66903;59.926;30.404;2023-06-22T10:06:59;100884.38;;;33.78;40.39
77737;BME280;66903;59.926;30.404;2023-06-22T10:12:14;100874.84;;;33.78;39.50
77737;BME280;66903;59.926;30.404;2023-06-22T10:17:21;100864.44;;;33.77;39.93
77737;BME280;66903;59.926;30.404;2023-06-22T10:22:21;100859.59;;;33.81;39.85
77737;BME280;66903;59.926;30.404;2023-06-22T10:27:22;100844.84;;;33.86;39.48
77737;BME280;66903;59.926;30.404;2023-06-22T10:32:23;100829.97;;;33.87;39.08
77737;BME280;66903;59.926;30.404;2023-06-22T10:37:23;100826.22;;;33.87;39.69
77737;BME280;66903;59.926;30.404;2023-06-22T10:42:25;100826.03;;;33.80;39.44
77737;BME280;66903;59.926;30.404;2023-06-22T10:47:25;100827.31;;;33.67;39.07
77737;BME280;66903;59.926;30.404;2023-06-22T10:52:26;100836.88;;;33.55;39.50
77737;BME280;66903;59.926;30.404;2023-06-22T10:57:26;100866.00;;;33.46;40.56
77737;BME280;66903;59.926;30.404;2023-06-22T11:02:27;100852.50;;;33.38;40.20
77737;BME280;66903;59.926;30.404;2023-06-22T11:07:29;100849.00;;;33.33;40.23
77737;BME280;66903;59.926;30.404;2023-06-22T11:12:29;100829.47;;;33.30;40.70
77737;BME280;66903;59.926;30.404;2023-06-22T11:17:30;100806.78;;;33.20;41.16
77737;BME280;66903;59.926;30.404;2023-06-22T11:22:31;100823.81;;;33.21;41.36
77737;BME280;66903;59.926;30.404;2023-06-22T11:27:34;100822.38;;;33.15;42.05
77737;BME280;66903;59.926;30.404;2023-06-22T11:32:35;100831.69;;;33.09;42.35
77737;BME280;66903;59.926;30.404;2023-06-22T11:37:36;100816.63;;;33.03;42.54
77737;BME280;66903;59.926;30.404;2023-06-22T11:42:36;100810.72;;;33.00;43.00
77737;BME280;66903;59.926;30.404;2023-06-22T11:47:37;100792.88;;;32.98;42.77
77737;BME280;66903;59.926;30.404;2023-06-22T11:52:37;100783.69;;;32.96;43.28
77737;BME280;66903;59.926;30.404;2023-06-22T11:57:39;100788.63;;;32.95;42.78
77737;BME280;66903;59.926;30.404;2023-06-22T12:02:51;100784.78;;;32.91;43.00
77737;BME280;66903;59.926;30.404;2023-06-22T12:07:55;100788.84;;;32.90;43.14
77737;BME280;66903;59.926;30.404;2023-06-22T12:12:56;100772.13;;;32.84;43.07
77737;BME280;66903;59.926;30.404;2023-06-22T12:18:00;100769.13;;;32.80;42.72
77737;BME280;66903;59.926;30.404;2023-06-22T12:23:01;100771.03;;;32.76;42.73
77737;BME280;66903;59.926;30.404;2023-06-22T12:28:02;100758.97;;;32.74;43.31
77737;BME280;66903;59.926;30.404;2023-06-22T12:33:03;100758.16;;;32.74;43.12
77737;BME280;66903;59.926;30.404;2023-06-22T12:38:03;100752.00;;;32.75;43.87
77737;BME280;66903;59.926;30.404;2023-06-22T12:43:06;100754.91;;;32.75;43.26
77737;BME280;66903;59.926;30.404;2023-06-22T12:48:07;100745.84;;;32.77;43.83
77737;BME280;66903;59.926;30.404;2023-06-22T12:53:08;100761.41;;;32.84;43.24
77737;BME280;66903;59.926;30.404;2023-06-22T12:58:09;100773.91;;;32.88;42.74
77737;BME280;66903;59.926;30.404;2023-06-22T13:03:09;100763.06;;;32.85;42.54
77737;BME280;66903;59.926;30.404;2023-06-22T13:08:10;100761.28;;;32.81;42.76
77737;BME280;66903;59.926;30.404;2023-06-22T13:13:11;100776.00;;;32.76;42.52
77737;BME280;66903;59.926;30.404;2023-06-22T13:18:11;100780.81;;;32.72;43.21
77737;BME280;66903;59.926;30.404;2023-06-22T13:23:12;100798.81;;;32.65;43.09
77737;BME280;66903;59.926;30.404;2023-06-22T13:28:13;100812.66;;;32.60;42.35
77737;BME280;66903;59.926;30.404;2023-06-22T13:33:14;100818.19;;;32.53;42.52
77737;BME280;66903;59.926;30.404;2023-06-22T13:38:15;100833.72;;;32.48;42.45
77737;BME280;66903;59.926;30.404;2023-06-22T13:43:16;100835.69;;;32.44;42.92
77737;BME280;66903;59.926;30.404;2023-06-22T13:48:17;100845.91;;;32.41;42.63
77737;BME280;66903;59.926;30.404;2023-06-22T13:53:17;100848.78;;;32.41;43.16
77737;BME280;66903;59.926;30.404;2023-06-22T13:58:18;100842.16;;;32.41;42.44
77737;BME280;66903;59.926;30.404;2023-06-22T14:03:22;100835.03;;;32.38;42.75
77737;BME280;66903;59.926;30.404;2023-06-22T14:08:22;100838.28;;;32.37;42.73
77737;BME280;66903;59.926;30.404;2023-06-22T14:13:24;100863.47;;;32.36;42.68
77737;BME280;66903;59.926;30.404;2023-06-22T14:18:24;100862.13;;;32.34;43.12
77737;BME280;66903;59.926;30.404;2023-06-22T14:23:26;100857.91;;;32.31;42.21
77737;BME280;66903;59.926;30.404;2023-06-22T14:28:27;100857.44;;;32.29;42.47
77737;BME280;66903;59.926;30.404;2023-06-22T14:33:27;100855.75;;;32.28;42.42
77737;BME280;66903;59.926;30.404;2023-06-22T14:38:28;100841.63;;;32.27;42.27
77737;BME280;66903;59.926;30.404;2023-06-22T14:43:28;100838.59;;;32.23;42.28
77737;BME280;66903;59.926;30.404;2023-06-22T14:48:29;100843.06;;;32.21;42.04
77737;BME280;66903;59.926;30.404;2023-06-22T14:53:29;100844.25;;;32.20;42.36
77737;BME280;66903;59.926;30.404;2023-06-22T14:58:33;100837.28;;;32.21;41.94
77737;BME280;66903;59.926;30.404;2023-06-22T15:03:34;100811.50;;;32.16;42.54
77737;BME280;66903;59.926;30.404;2023-06-22T15:08:40;100816.06;;;32.17;42.19
77737;BME280;66903;59.926;30.404;2023-06-22T15:13:41;100789.44;;;32.11;42.30
77737;BME280;66903;59.926;30.404;2023-06-22T15:18:42;100792.09;;;32.16;42.47
77737;BME280;66903;59.926;30.404;2023-06-22T15:23:42;100784.66;;;32.15;42.09
77737;BME280;66903;59.926;30.404;2023-06-22T15:28:43;100783.44;;;32.16;42.48
77737;BME280;66903;59.926;30.404;2023-06-22T15:33:44;100761.16;;;32.17;42.35
77737;BME280;66903;59.926;30.404;2023-06-22T15:38:44;100762.00;;;32.17;42.41
77737;BME280;66903;59.926;30.404;2023-06-22T15:43:45;100766.94;;;32.17;42.72
77737;BME280;66903;59.926;30.404;2023-06-22T15:48:46;100754.75;;;32.11;42.82
77737;BME280;66903;59.926;30.404;2023-06-22T15:53:46;100772.00;;;32.20;42.38
77737;BME280;66903;59.926;30.404;2023-06-22T15:58:46;100770.81;;;32.21;42.77
77737;BME280;66903;59.926;30.404;2023-06-22T16:03:53;100770.56;;;32.26;42.84
77737;BME280;66903;59.926;30.404;2023-06-22T16:14:37;100774.56;;;32.33;42.66
77737;BME280;66903;59.926;30.404;2023-06-22T16:19:40;100768.41;;;32.35;43.05
77737;BME280;66903;59.926;30.404;2023-06-22T16:24:40;100766.38;;;32.35;43.54
77737;BME280;66903;59.926;30.404;2023-06-22T16:29:42;100763.81;;;32.34;43.17
77737;BME280;66903;59.926;30.404;2023-06-22T16:34:42;100756.72;;;32.31;43.37
77737;BME280;66903;59.926;30.404;2023-06-22T16:40:01;100743.81;;;32.29;43.35
77737;BME280;66903;59.926;30.404;2023-06-22T16:45:02;100742.63;;;32.30;43.00
77737;BME280;66903;59.926;30.404;2023-06-22T16:50:04;100744.53;;;32.26;43.27
77737;BME280;66903;59.926;30.404;2023-06-22T16:55:09;100731.06;;;32.30;43.28
77737;BME280;66903;59.926;30.404;2023-06-22T17:00:10;100728.88;;;32.27;43.46
77737;BME280;66903;59.926;30.404;2023-06-22T17:05:13;100715.50;;;32.22;43.30
77737;BME280;66903;59.926;30.404;2023-06-22T17:10:14;100716.84;;;32.25;43.15
77737;BME280;66903;59.926;30.404;2023-06-22T17:15:15;100715.50;;;32.22;43.33
77737;BME280;66903;59.926;30.404;2023-06-22T17:20:16;100715.16;;;32.24;42.85
77737;BME280;66903;59.926;30.404;2023-06-22T17:25:17;100691.41;;;32.18;43.08
77737;BME280;66903;59.926;30.404;2023-06-22T17:30:19;100705.28;;;32.25;43.09
77737;BME280;66903;59.926;30.404;2023-06-22T17:35:21;100682.16;;;32.25;43.01
77737;BME280;66903;59.926;30.404;2023-06-22T17:40:24;100684.31;;;32.28;43.14
77737;BME280;66903;59.926;30.404;2023-06-22T17:45:26;100684.94;;;32.21;42.62
77737;BME280;66903;59.926;30.404;2023-06-22T17:50:28;100693.00;;;32.16;43.48
77737;BME280;66903;59.926;30.404;2023-06-22T17:55:29;100690.81;;;32.13;43.60
77737;BME280;66903;59.926;30.404;2023-06-22T18:00:30;100677.09;;;32.10;43.85
77737;BME280;66903;59.926;30.404;2023-06-22T18:05:33;100680.69;;;32.19;44.24
77737;BME280;66903;59.926;30.404;2023-06-22T18:10:35;100688.06;;;32.28;44.51
77737;BME280;66903;59.926;30.404;2023-06-22T18:15:37;100678.41;;;32.24;44.95
77737;BME280;66903;59.926;30.404;2023-06-22T18:20:39;100678.19;;;32.17;45.08
77737;BME280;66903;59.926;30.404;2023-06-22T18:25:42;100688.16;;;32.08;45.05
77737;BME280;66903;59.926;30.404;2023-06-22T18:30:45;100688.53;;;32.06;44.64
77737;BME280;66903;59.926;30.404;2023-06-22T18:35:49;100697.69;;;32.08;45.12
77737;BME280;66903;59.926;30.404;2023-06-22T18:40:51;100688.78;;;32.01;44.65
77737;BME280;66903;59.926;30.404;2023-06-22T18:45:52;100682.38;;;31.96;44.87
77737;BME280;66903;59.926;30.404;2023-06-22T18:50:52;100673.31;;;31.85;44.62
77737;BME280;66903;59.926;30.404;2023-06-22T18:56:10;100685.88;;;31.89;44.73
77737;BME280;66903;59.926;30.404;2023-06-22T19:01:22;100693.84;;;31.48;45.00
77737;BME280;66903;59.926;30.404;2023-06-22T19:12:46;100674.72;;;30.11;46.10
77737;BME280;66903;59.926;30.404;2023-06-22T19:18:28;100669.84;;;29.65;48.07
77737;BME280;66903;59.926;30.404;2023-06-22T19:23:39;100679.88;;;29.59;49.23
77737;BME280;66903;59.926;30.404;2023-06-22T19:28:50;100688.22;;;29.44;49.10
77737;BME280;66903;59.926;30.404;2023-06-22T19:33:53;100670.09;;;29.43;49.80
77737;BME280;66903;59.926;30.404;2023-06-22T19:38:54;100676.72;;;29.44;49.76
77737;BME280;66903;59.926;30.404;2023-06-22T19:43:57;100677.25;;;29.28;49.25
77737;BME280;66903;59.926;30.404;2023-06-22T19:48:58;100678.81;;;29.09;49.24
77737;BME280;66903;59.926;30.404;2023-06-22T19:54:08;100673.06;;;29.09;49.96
77737;BME280;66903;59.926;30.404;2023-06-22T19:59:13;100678.47;;;29.02;50.14
77737;BME280;66903;59.926;30.404;2023-06-22T20:04:14;100670.84;;;29.06;50.42
77737;BME280;66903;59.926;30.404;2023-06-22T20:09:15;100674.06;;;28.96;50.40
77737;BME280;66903;59.926;30.404;2023-06-22T20:14:19;100663.91;;;28.90;50.09
77737;BME280;66903;59.926;30.404;2023-06-22T20:19:20;100670.00;;;29.22;50.77
77737;BME280;66903;59.926;30.404;2023-06-22T20:24:21;100661.53;;;29.26;49.95
77737;BME280;66903;59.926;30.404;2023-06-22T20:29:26;100661.56;;;28.83;49.97
77737;BME280;66903;59.926;30.404;2023-06-22T20:34:33;100651.75;;;28.76;50.80
77737;BME280;66903;59.926;30.404;2023-06-22T20:39:34;100652.63;;;28.59;51.51
77737;BME280;66903;59.926;30.404;2023-06-22T20:44:35;100646.31;;;28.31;50.92
77737;BME280;66903;59.926;30.404;2023-06-22T20:49:35;100644.78;;;28.17;52.30
77737;BME280;66903;59.926;30.404;2023-06-22T20:54:37;100645.94;;;28.07;52.21
77737;BME280;66903;59.926;30.404;2023-06-22T20:59:38;100642.47;;;27.88;52.66
77737;BME280;66903;59.926;30.404;2023-06-22T21:04:38;100640.31;;;27.94;53.11
77737;BME280;66903;59.926;30.404;2023-06-22T21:09:41;100635.81;;;28.27;52.38
77737;BME280;66903;59.926;30.404;2023-06-22T21:14:43;100639.38;;;28.50;51.33
77737;BME280;66903;59.926;30.404;2023-06-22T21:19:43;100635.66;;;28.23;52.48
77737;BME280;66903;59.926;30.404;2023-06-22T21:24:45;100638.69;;;28.27;52.20
77737;BME280;66903;59.926;30.404;2023-06-22T21:29:46;100643.91;;;28.08;51.81
77737;BME280;66903;59.926;30.404;2023-06-22T21:34:47;100626.09;;;27.89;52.44
77737;BME280;66903;59.926;30.404;2023-06-22T21:39:49;100633.28;;;27.69;52.17
77737;BME280;66903;59.926;30.404;2023-06-22T21:44:49;100630.03;;;27.54;52.40
77737;BME280;66903;59.926;30.404;2023-06-22T21:49:50;100630.69;;;27.42;52.47
77737;BME280;66903;59.926;30.404;2023-06-22T21:54:51;100628.41;;;27.31;52.75
77737;BME280;66903;59.926;30.404;2023-06-22T21:59:55;100626.13;;;27.19;52.61
77737;BME280;66903;59.926;30.404;2023-06-22T22:04:56;100616.78;;;27.05;52.16
77737;BME280;66903;59.926;30.404;2023-06-22T22:09:56;100617.69;;;26.92;52.98
77737;BME280;66903;59.926;30.404;2023-06-22T22:14:57;100598.63;;;26.87;52.80
77737;BME280;66903;59.926;30.404;2023-06-22T22:19:57;100607.03;;;26.84;52.60
77737;BME280;66903;59.926;30.404;2023-06-22T22:24:58;100613.72;;;26.79;53.03
77737;BME280;66903;59.926;30.404;2023-06-22T22:29:58;100606.13;;;26.75;52.96
77737;BME280;66903;59.926;30.404;2023-06-22T22:34:59;100617.78;;;26.78;52.54
77737;BME280;66903;59.926;30.404;2023-06-22T22:39:59;100619.31;;;26.84;53.24
77737;BME280;66903;59.926;30.404;2023-06-22T22:45:01;100616.03;;;26.91;52.72
77737;BME280;66903;59.926;30.404;2023-06-22T22:50:07;100620.91;;;26.90;52.98
77737;BME280;66903;59.926;30.404;2023-06-22T22:55:08;100627.00;;;26.97;52.85
77737;BME280;66903;59.926;30.404;2023-06-22T23:00:10;100627.59;;;27.08;52.59
77737;BME280;66903;59.926;30.404;2023-06-22T23:05:12;100626.47;;;27.17;53.12
77737;BME280;66903;59.926;30.404;2023-06-22T23:10:13;100630.72;;;27.28;53.31
77737;BME280;66903;59.926;30.404;2023-06-22T23:15:13;100625.94;;;27.46;52.39
77737;BME280;66903;59.926;30.404;2023-06-22T23:20:14;100632.47;;;27.77;52.51
77737;BME280;66903;59.926;30.404;2023-06-22T23:25:17;100626.03;;;28.37;52.04
77737;BME280;66903;59.926;30.404;2023-06-22T23:30:18;100624.16;;;28.92;50.66
77737;BME280;66903;59.926;30.404;2023-06-22T23:35:19;100617.47;;;29.34;49.89
77737;BME280;66903;59.926;30.404;2023-06-22T23:40:20;100629.53;;;29.65;49.29
77737;BME280;66903;59.926;30.404;2023-06-22T23:45:20;100625.22;;;29.88;48.99
77737;BME280;66903;59.926;30.404;2023-06-22T23:50:21;100623.56;;;30.08;48.69
77737;BME280;66903;59.926;30.404;2023-06-22T23:55:22;100618.38;;;30.22;48.22
